Time;durP1;ratioP1;P1;durP2;ratioP2;P2;SDS_P1;SDS_P2;PMS_P1;PMS_P2;Temp;Humidity;BMP_temperature;BMP_pressure;BME280_temperature;BME280_humidity;BME280_pressure;Samples;Min_cycle;Max_cycle;Signal;HPM_P1;HPM_P2
2023/03/29 00:02:06;;;;;;;13.68;7.22;;;;;;;7.52;100.00;99965.25;5005722;28;20487;-92
2023/03/29 00:04:33;;;;;;;14.50;7.13;;;;;;;7.22;100.00;99921.25;5009472;28;20047;-92
2023/03/29 00:07:03;;;;;;;17.83;8.05;;;;;;;7.39;100.00;99966.63;4993572;28;20050;-92
2023/03/29 00:09:32;;;;;;;14.95;8.13;;;;;;;7.08;100.00;99928.69;5012436;28;20046;-91
2023/03/29 00:12:00;;;;;;;16.33;7.72;;;;;;;7.34;100.00;99973.75;5001905;28;20068;-91
2023/03/29 00:14:29;;;;;;;16.15;8.60;;;;;;;7.08;100.00;99925.22;5009450;28;20054;-92
2023/03/29 00:16:57;;;;;;;15.43;8.18;;;;;;;7.08;100.00;99928.69;5010261;28;20137;-92
2023/03/29 00:19:24;;;;;;;14.90;7.72;;;;;;;7.40;100.00;99981.34;5012479;28;20056;-91
2023/03/29 00:21:51;;;;;;;17.25;7.72;;;;;;;7.39;100.00;99979.66;4997357;28;20365;-93
2023/03/29 00:24:19;;;;;;;14.23;7.55;;;;;;;7.19;100.00;99941.34;5007862;28;20097;-92
2023/03/29 00:26:47;;;;;;;14.13;7.45;;;;;;;7.30;100.00;99964.38;5005352;28;20050;-91
2023/03/29 00:29:14;;;;;;;14.50;7.55;;;;;;;7.19;100.00;99941.34;5002827;28;20042;-91
2023/03/29 00:31:41;;;;;;;16.17;7.93;;;;;;;7.14;100.00;99927.63;5022605;28;20050;-91
2023/03/29 00:34:07;;;;;;;14.13;7.15;;;;;;;7.18;100.00;99943.06;5017366;28;20396;-93
2023/03/29 00:36:34;;;;;;;12.70;6.32;;;;;;;7.14;100.00;99948.47;5009045;28;20050;-93
2023/03/29 00:39:01;;;;;;;14.98;7.72;;;;;;;7.08;100.00;99946.91;5018929;28;20053;-92
2023/03/29 00:41:28;;;;;;;16.25;9.00;;;;;;;6.96;100.00;99927.38;5000610;28;20054;-92
2023/03/29 00:43:56;;;;;;;15.68;7.88;;;;;;;7.16;100.00;99963.09;5013169;28;20050;-92
2023/03/29 00:46:25;;;;;;;14.00;7.40;;;;;;;7.13;100.00;99949.34;5011742;28;20049;-93
2023/03/29 00:48:55;;;;;;;15.38;8.38;;;;;;;7.01;100.00;99916.78;5009344;28;20485;-93
2023/03/29 00:51:25;;;;;;;14.00;7.85;;;;;;;6.78;100.00;99926.28;5018430;28;20045;-92
2023/03/29 00:53:56;;;;;;;15.00;6.88;;;;;;;6.86;100.00;99943.38;5009576;28;20062;-92
2023/03/29 00:56:31;;;;;;;15.18;8.48;;;;;;;6.81;100.00;99959.13;5006234;28;20046;-93
2023/03/29 00:59:08;;;;;;;13.82;7.57;;;;;;;6.76;100.00;99961.88;5022737;28;20054;-92
2023/03/29 01:01:53;;;;;;;13.93;7.53;;;;;;;6.74;100.00;99958.50;5008457;28;20050;-91
2023/03/29 01:04:42;;;;;;;14.30;7.85;;;;;;;6.79;100.00;99964.38;4998537;28;20046;-93
2023/03/29 01:07:24;;;;;;;14.30;8.32;;;;;;;6.71;100.00;99953.41;5012576;28;20444;-92
2023/03/29 01:10:03;;;;;;;15.37;7.10;;;;;;;6.63;100.00;99945.84;5009281;28;20485;-93
2023/03/29 01:12:34;;;;;;;13.23;6.53;;;;;;;6.64;100.00;99949.31;5009143;28;20066;-92
2023/03/29 01:15:08;;;;;;;12.68;6.97;;;;;;;6.12;100.00;99881.69;5013317;28;20076;-92
2023/03/29 01:17:36;;;;;;;15.73;8.32;;;;;;;6.18;100.00;99912.69;5024346;28;20496;-92
2023/03/29 01:20:42;;;;;;;16.77;8.95;;;;;;;6.34;100.00;99927.75;5021954;28;20045;-91
2023/03/29 01:23:33;;;;;;;14.45;7.03;;;;;;;6.45;100.00;99931.72;5015281;28;20389;-91
2023/03/29 01:26:03;;;;;;;14.43;6.75;;;;;;;6.47;100.00;99936.88;5008318;28;20054;-92
2023/03/29 01:28:39;;;;;;;13.27;7.07;;;;;;;6.33;100.00;99926.94;5012587;28;20058;-92
2023/03/29 01:31:10;;;;;;;15.15;8.18;;;;;;;6.17;100.00;99897.97;5020890;28;20049;-91
2023/03/29 01:33:48;;;;;;;15.43;7.63;;;;;;;6.20;100.00;99897.06;5013128;28;20054;-91
2023/03/29 01:36:25;;;;;;;14.40;7.47;;;;;;;6.20;100.00;99923.03;5019234;28;20053;-91
2023/03/29 01:39:04;;;;;;;13.48;7.45;;;;;;;6.16;100.00;99924.91;5008961;28;20116;-91
2023/03/29 01:42:13;;;;;;;16.02;7.82;;;;;;;6.11;100.00;99908.59;5006570;28;20062;-91
2023/03/29 01:44:54;;;;;;;11.48;5.15;;;;;;;6.26;100.00;99915.03;5011640;28;20045;-91
2023/03/29 01:47:30;;;;;;;11.90;5.47;;;;;;;6.06;100.00;99911.34;5013887;28;20096;-91
2023/03/29 01:50:12;;;;;;;12.38;6.25;;;;;;;5.84;100.00;99879.97;5022913;28;20132;-92
2023/03/29 01:52:48;;;;;;;13.13;6.57;;;;;;;5.79;100.00;99886.19;5011235;28;20054;-91
2023/03/29 01:55:23;;;;;;;13.70;7.47;;;;;;;5.89;100.00;99900.59;5029517;28;20064;-92
2023/03/29 01:57:52;;;;;;;14.38;6.93;;;;;;;5.95;100.00;99907.34;5010984;28;20684;-91
2023/03/29 02:00:23;;;;;;;13.43;7.28;;;;;;;6.04;100.00;99915.72;5017133;28;20103;-90
2023/03/29 02:02:53;;;;;;;12.75;6.35;;;;;;;5.67;100.00;99851.91;5014436;28;20076;-91
2023/03/29 02:05:23;;;;;;;14.57;6.88;;;;;;;6.00;100.00;99902.88;5002017;28;20055;-91
2023/03/29 02:07:51;;;;;;;12.40;6.07;;;;;;;6.10;100.00;99906.88;5011037;28;20053;-92
2023/03/29 02:10:20;;;;;;;13.98;6.90;;;;;;;5.88;100.00;99878.97;5016853;28;20172;-92
2023/03/29 02:12:47;;;;;;;13.88;7.43;;;;;;;5.88;100.00;99868.56;5013529;28;20060;-91
2023/03/29 02:15:18;;;;;;;13.05;6.72;;;;;;;6.10;100.00;99890.44;5015631;28;20073;-91
2023/03/29 02:17:46;;;;;;;16.35;8.85;;;;;;;6.11;100.00;99903.41;5008338;28;20096;-91
2023/03/29 02:20:26;;;;;;;15.00;7.75;;;;;;;6.14;100.00;99895.47;5002584;28;20045;-92
2023/03/29 02:23:00;;;;;;;14.60;8.15;;;;;;;6.16;100.00;99906.69;5014630;28;20463;-92
2023/03/29 02:25:28;;;;;;;18.50;9.93;;;;;;;6.09;100.00;99897.38;5004608;28;20497;-91
2023/03/29 02:27:55;;;;;;;16.60;7.35;;;;;;;5.97;100.00;99845.84;5009166;28;20408;-92
2023/03/29 02:30:27;;;;;;;13.88;7.45;;;;;;;6.08;100.00;99872.31;5010688;28;20477;-92
2023/03/29 02:33:02;;;;;;;12.82;6.80;;;;;;;6.25;100.00;99897.72;5009638;28;20065;-91
2023/03/29 02:35:39;;;;;;;12.10;5.68;;;;;;;6.20;100.00;99884.06;5010829;28;20096;-91
2023/03/29 02:38:10;;;;;;;13.73;7.72;;;;;;;6.19;100.00;99887.53;5003124;28;20519;-91
2023/03/29 02:40:38;;;;;;;14.98;7.10;;;;;;;6.35;100.00;99906.09;5021379;28;20046;-91
2023/03/29 02:43:07;;;;;;;14.00;6.53;;;;;;;6.05;100.00;99836.84;5008017;28;20058;-91
2023/03/29 02:45:35;;;;;;;15.25;7.28;;;;;;;6.44;100.00;99884.97;5014234;28;20058;-90
2023/03/29 02:48:07;;;;;;;14.45;7.38;;;;;;;6.54;100.00;99899.34;5014116;28;20675;-91
2023/03/29 02:50:37;;;;;;;13.88;6.50;;;;;;;6.70;100.00;99906.63;5006855;28;20073;-91
2023/03/29 02:53:13;;;;;;;14.25;7.55;;;;;;;6.39;100.00;99871.25;5014385;28;20092;-92
2023/03/29 02:55:40;;;;;;;14.10;7.22;;;;;;;6.42;100.00;99864.19;5013883;28;20100;-91
2023/03/29 02:58:07;;;;;;;15.57;8.30;;;;;;;6.61;100.00;99903.44;5011512;28;20053;-91
2023/03/29 03:00:37;;;;;;;15.73;7.40;;;;;;;6.73;100.00;99912.59;4995295;28;20050;-91
2023/03/29 03:03:06;;;;;;;13.32;7.32;;;;;;;6.73;100.00;99894.38;5014158;28;20062;-91
2023/03/29 03:05:34;;;;;;;15.57;8.60;;;;;;;6.83;100.00;99911.38;5014532;28;20049;-91
2023/03/29 03:08:01;;;;;;;15.85;6.97;;;;;;;6.70;100.00;99880.63;5013925;28;20053;-91
2023/03/29 03:10:28;;;;;;;15.95;7.40;;;;;;;6.78;100.00;99879.44;5007269;28;20051;-91
2023/03/29 03:12:55;;;;;;;13.38;6.72;;;;;;;6.71;100.00;99870.16;5009312;28;20057;-91
2023/03/29 03:15:22;;;;;;;14.07;7.72;;;;;;;6.84;100.00;99878.38;5007293;28;20096;-92
2023/03/29 03:17:48;;;;;;;14.63;7.35;;;;;;;6.97;100.00;99897.84;4999858;28;20054;-91
2023/03/29 03:20:15;;;;;;;14.35;7.05;;;;;;;6.74;100.00;99851.81;5004762;28;20512;-90
2023/03/29 03:22:47;;;;;;;13.68;7.00;;;;;;;7.18;100.00;99906.63;5002788;28;20448;-91
2023/03/29 03:25:18;;;;;;;13.88;7.60;;;;;;;7.16;100.00;99895.41;4995878;28;20057;-90
2023/03/29 03:27:45;;;;;;;14.98;7.63;;;;;;;7.04;100.00;99873.28;5022660;28;20137;-91
2023/03/29 03:30:12;;;;;;;15.52;8.40;;;;;;;7.05;100.00;99868.94;4996373;28;20069;-91
2023/03/29 03:32:40;;;;;;;15.07;7.95;;;;;;;6.82;100.00;99830.75;5011516;28;20399;-91
2023/03/29 03:35:07;;;;;;;14.82;7.18;;;;;;;7.24;100.00;99882.09;5010706;28;20046;-91
2023/03/29 03:37:34;;;;;;;15.90;7.90;;;;;;;7.15;100.00;99872.03;5023985;28;20045;-89
2023/03/29 03:40:07;;;;;;;15.15;8.07;;;;;;;6.95;100.00;99842.38;5011604;28;20042;-91
2023/03/29 03:42:34;;;;;;;14.10;7.25;;;;;;;7.14;100.00;99873.81;5010424;28;20072;-90
2023/03/29 03:45:01;;;;;;;13.43;6.95;;;;;;;7.15;100.00;99877.25;5010162;28;20499;-91
2023/03/29 03:47:28;;;;;;;14.45;7.60;;;;;;;6.91;100.00;99821.75;5008823;28;20054;-90
2023/03/29 03:49:55;;;;;;;13.68;6.88;;;;;;;6.96;100.00;99835.47;4999812;28;20069;-90
2023/03/29 03:52:22;;;;;;;12.90;6.15;;;;;;;6.86;100.00;99808.91;5009974;28;20100;-90
2023/03/29 03:54:49;;;;;;;12.95;6.05;;;;;;;7.00;100.00;99834.41;4994282;28;20408;-90
2023/03/29 03:57:16;;;;;;;11.70;5.57;;;;;;;7.04;100.00;99820.38;5004299;28;20053;-91
2023/03/29 03:59:43;;;;;;;13.40;7.32;;;;;;;6.90;100.00;99801.84;5010829;28;20053;-90
2023/03/29 04:02:10;;;;;;;13.20;6.88;;;;;;;6.87;100.00;99800.22;5005837;28;20050;-91
2023/03/29 04:04:38;;;;;;;14.43;7.90;;;;;;;6.84;100.00;99798.56;5009139;28;20052;-91
2023/03/29 04:07:05;;;;;;;13.38;6.50;;;;;;;7.16;100.00;99843.34;5012973;28;20050;-91
2023/03/29 04:09:33;;;;;;;14.57;7.75;;;;;;;7.23;100.00;99849.19;5012647;28;20486;-90
2023/03/29 04:12:03;;;;;;;15.40;6.57;;;;;;;7.14;100.00;99831.31;5016552;28;20057;-89
2023/03/29 04:14:31;;;;;;;15.13;8.25;;;;;;;6.97;100.00;99792.88;5022030;28;20061;-91
2023/03/29 04:16:58;;;;;;;13.82;7.05;;;;;;;6.93;100.00;99786.13;5007220;28;20065;-92
2023/03/29 04:19:25;;;;;;;14.30;7.53;;;;;;;7.13;100.00;99835.66;5004696;28;20049;-91
2023/03/29 04:21:51;;;;;;;13.25;6.88;;;;;;;6.96;100.00;99809.44;5018167;28;20046;-91
2023/03/29 04:24:18;;;;;;;17.05;8.27;;;;;;;7.09;100.00;99825.44;5004217;28;20504;-90
2023/03/29 04:26:47;;;;;;;13.48;6.28;;;;;;;7.16;100.00;99847.72;5014199;28;20048;-92
2023/03/29 04:29:14;;;;;;;15.00;7.82;;;;;;;6.98;100.00;99825.81;5013600;28;20065;-91
2023/03/29 04:31:40;;;;;;;15.30;7.53;;;;;;;6.86;100.00;99823.69;5023185;28;20064;-90
2023/03/29 04:34:07;;;;;;;14.65;7.13;;;;;;;7.00;100.00;99847.44;5005822;28;20050;-92
2023/03/29 04:36:34;;;;;;;15.82;7.35;;;;;;;7.16;100.00;99864.16;5002651;28;20503;-92
2023/03/29 04:39:01;;;;;;;14.35;6.82;;;;;;;7.22;100.00;99860.47;5011851;28;20048;-92
2023/03/29 04:41:27;;;;;;;14.05;7.63;;;;;;;7.05;100.00;99832.50;5009628;28;20046;-92
2023/03/29 04:43:54;;;;;;;12.02;6.18;;;;;;;7.20;100.00;99841.47;5009282;28;20061;-92
2023/03/29 04:46:25;;;;;;;13.27;5.82;;;;;;;7.22;100.00;99829.25;5014268;28;20045;-91
2023/03/29 04:48:53;;;;;;;12.23;5.85;;;;;;;7.45;100.00;99836.16;5012076;28;20054;-91
2023/03/29 04:51:21;;;;;;;11.20;5.00;;;;;;;7.54;100.00;99838.44;4992947;28;20396;-92
2023/03/29 04:53:49;;;;;;;12.63;6.40;;;;;;;7.37;100.00;99817.41;4994007;28;20056;-92
2023/03/29 04:56:16;;;;;;;16.63;7.68;;;;;;;7.30;100.00;99808.97;4992258;28;20382;-89
2023/03/29 04:58:43;;;;;;;20.02;9.38;;;;;;;7.33;100.00;99800.19;5019193;28;20046;-91
2023/03/29 05:01:10;;;;;;;14.43;6.38;;;;;;;7.44;100.00;99811.03;5002602;28;20125;-91
2023/03/29 05:03:37;;;;;;;15.38;7.45;;;;;;;7.64;100.00;99827.63;5013155;28;20056;-91
2023/03/29 05:06:08;;;;;;;16.80;7.78;;;;;;;7.76;100.00;99837.56;5014871;28;20504;-91
2023/03/29 05:08:39;;;;;;;15.23;7.22;;;;;;;7.70;100.00;99811.75;5009818;28;20054;-91
2023/03/29 05:11:10;;;;;;;14.35;6.97;;;;;;;7.83;100.00;99828.59;5015528;28;20503;-88
2023/03/29 05:13:37;;;;;;;12.68;6.32;;;;;;;7.84;100.00;99819.00;5009541;28;20476;-88
2023/03/29 05:16:05;;;;;;;11.93;5.45;;;;;;;7.86;100.00;99823.25;5011274;28;20046;-88
2023/03/29 05:18:32;;;;;;;14.00;6.53;;;;;;;7.92;100.00;99837.78;5012846;28;20061;-87
2023/03/29 05:20:59;;;;;;;14.93;7.15;;;;;;;7.67;100.00;99799.69;5021404;28;20494;-88
2023/03/29 05:23:26;;;;;;;14.77;7.60;;;;;;;7.49;100.00;99779.59;5007258;28;20089;-89
2023/03/29 05:25:54;;;;;;;12.57;6.75;;;;;;;7.52;100.00;99774.25;5005476;28;20049;-89
2023/03/29 05:28:21;;;;;;;13.05;7.10;;;;;;;7.60;100.00;99793.88;5012099;28;20050;-88
2023/03/29 05:30:58;;;;;;;13.40;6.20;;;;;;;7.54;100.00;99772.44;4998848;28;20502;-90
2023/03/29 05:33:26;;;;;;;10.32;4.78;;;;;;;7.90;100.00;99831.81;5013850;28;20045;-92
2023/03/29 05:36:05;;;;;;;11.68;5.00;;;;;;;7.79;100.00;99799.22;5012075;28;20057;-92
2023/03/29 05:38:32;;;;;;;14.52;7.50;;;;;;;7.88;100.00;99823.19;5026647;28;20080;-93
2023/03/29 05:41:00;;;;;;;14.57;6.70;;;;;;;7.86;100.00;99818.06;5002523;28;20098;-92
2023/03/29 05:43:30;;;;;;;13.73;6.28;;;;;;;7.80;100.00;99803.50;5000947;28;20104;-92
2023/03/29 05:45:57;;;;;;;13.52;6.22;;;;;;;7.77;100.00;99801.03;5011752;28;20498;-91
2023/03/29 05:48:26;;;;;;;12.57;6.60;;;;;;;7.86;100.00;99809.38;5019944;28;20141;-92
2023/03/29 05:50:54;;;;;;;15.30;6.70;;;;;;;7.81;100.00;99796.53;5003279;28;20050;-86
2023/03/29 05:53:23;;;;;;;15.52;7.35;;;;;;;7.73;100.00;99794.22;5009084;28;20073;-89
2023/03/29 05:55:50;;;;;;;14.05;6.95;;;;;;;7.96;100.00;99811.53;5004824;28;20053;-87
2023/03/29 05:58:17;;;;;;;13.45;6.97;;;;;;;7.95;100.00;99816.78;5000675;28;20711;-89
2023/03/29 06:00:45;;;;;;;13.70;6.93;;;;;;;7.89;100.00;99804.03;5016002;28;20045;-88
2023/03/29 06:03:18;;;;;;;12.73;6.03;;;;;;;7.84;100.00;99783.34;5007343;28;20196;-89
2023/03/29 06:05:55;;;;;;;15.15;6.82;;;;;;;8.08;100.00;99814.56;5010492;28;20054;-89
2023/03/29 06:08:22;;;;;;;14.52;7.10;;;;;;;7.95;100.00;99803.75;5010896;28;20050;-89
2023/03/29 06:10:49;;;;;;;16.27;8.63;;;;;;;7.89;100.00;99793.59;5005692;28;20496;-87
2023/03/29 06:13:17;;;;;;;15.70;8.23;;;;;;;7.98;100.00;99804.50;5003513;28;20056;-88
2023/03/29 06:15:44;;;;;;;18.02;7.97;;;;;;;7.69;100.00;99758.78;5013776;28;20570;-89
2023/03/29 06:18:11;;;;;;;16.40;7.78;;;;;;;7.93;100.00;99806.47;5007624;28;20049;-88
2023/03/29 06:20:38;;;;;;;18.88;9.13;;;;;;;7.90;100.00;99806.59;5010818;28;20046;-89
2023/03/29 06:23:05;;;;;;;20.27;11.00;;;;;;;7.61;100.00;99766.06;5025105;28;20057;-89
2023/03/29 06:25:32;;;;;;;20.30;10.25;;;;;;;7.58;100.00;99758.41;5012247;28;20120;-88
2023/03/29 06:28:00;;;;;;;20.23;10.73;;;;;;;7.85;100.00;99787.69;5003336;28;20050;-88
2023/03/29 06:30:27;;;;;;;19.38;9.93;;;;;;;8.02;100.00;99805.22;5009525;28;20054;-88
2023/03/29 06:32:54;;;;;;;19.40;9.40;;;;;;;8.02;100.00;99791.31;5014729;28;20125;-88
2023/03/29 06:35:21;;;;;;;16.80;8.07;;;;;;;7.96;100.00;99780.25;5014395;28;20045;-88
2023/03/29 06:37:48;;;;;;;21.23;10.27;;;;;;;8.22;100.00;99813.97;5019771;28;20045;-88
2023/03/29 06:40:18;;;;;;;15.70;8.13;;;;;;;8.28;100.00;99809.31;5006034;28;20085;-89
2023/03/29 06:42:45;;;;;;;21.13;8.65;;;;;;;7.89;100.00;99751.91;5011343;28;20065;-89
2023/03/29 06:45:12;;;;;;;17.38;8.88;;;;;;;8.10;100.00;99774.44;5005126;28;20396;-88
2023/03/29 06:47:39;;;;;;;25.40;12.48;;;;;;;8.18;100.00;99795.00;5012574;28;20049;-89
2023/03/29 06:50:07;;;;;;;22.23;10.27;;;;;;;8.20;100.00;99814.03;5024831;28;20046;-89
2023/03/29 06:52:34;;;;;;;16.48;8.90;;;;;;;7.95;100.00;99765.53;5012078;28;20050;-89
2023/03/29 06:55:01;;;;;;;19.10;8.70;;;;;;;7.98;100.00;99765.41;5015273;28;20447;-89
2023/03/29 06:57:28;;;;;;;21.38;10.68;;;;;;;8.00;100.00;99780.97;5013241;28;20459;-88
2023/03/29 06:59:54;;;;;;;22.38;10.70;;;;;;;8.01;100.00;99787.88;5005370;28;20439;-89
2023/03/29 07:02:21;;;;;;;21.98;10.85;;;;;;;8.13;100.00;99782.16;5008304;28;20045;-88
2023/03/29 07:04:48;;;;;;;21.02;10.85;;;;;;;8.13;100.00;99784.75;5011547;28;20057;-89
2023/03/29 07:07:21;;;;;;;24.10;12.40;;;;;;;7.99;100.00;99782.72;5004684;28;20050;-89
2023/03/29 07:09:54;;;;;;;32.25;15.93;;;;;;;8.05;100.00;99799.03;5010723;28;20133;-90
2023/03/29 07:12:21;;;;;;;28.98;15.43;;;;;;;7.83;100.00;99773.88;5010473;28;20050;-89
2023/03/29 07:14:48;;;;;;;30.88;17.10;;;;;;;7.85;100.00;99784.22;5013870;28;20060;-90
2023/03/29 07:17:15;;;;;;;29.65;15.45;;;;;;;7.89;100.00;99783.19;5005502;28;20064;-88
2023/03/29 07:19:42;;;;;;;31.58;15.52;;;;;;;8.02;100.00;99813.06;5013001;28;20057;-89
2023/03/29 07:22:09;;;;;;;24.48;12.55;;;;;;;7.93;100.00;99775.19;5012751;28;20046;-89
2023/03/29 07:24:36;;;;;;;22.88;11.23;;;;;;;8.06;100.00;99769.44;5029632;28;20088;-90
2023/03/29 07:27:03;;;;;;;18.67;9.38;;;;;;;7.98;100.00;99754.13;5024712;28;20413;-90
2023/03/29 07:29:31;;;;;;;21.33;11.18;;;;;;;8.24;100.00;99784.28;4994129;28;20082;-90
2023/03/29 07:31:58;;;;;;;25.17;11.88;;;;;;;8.22;100.00;99774.84;5005952;28;20046;-89
2023/03/29 07:34:26;;;;;;;23.63;11.55;;;;;;;8.13;100.00;99742.19;5007083;28;20408;-90
2023/03/29 07:36:53;;;;;;;29.23;14.45;;;;;;;8.14;100.00;99763.00;5014106;28;20052;-89
2023/03/29 07:39:21;;;;;;;20.27;11.35;;;;;;;8.39;100.00;99777.56;5010518;28;20058;-89
2023/03/29 07:41:47;;;;;;;32.05;16.98;;;;;;;8.22;100.00;99754.84;5009310;28;20121;-89
2023/03/29 07:44:17;;;;;;;28.08;13.23;;;;;;;8.36;100.00;99731.59;5009038;28;20053;-90
2023/03/29 07:46:43;;;;;;;27.17;12.13;;;;;;;8.44;100.00;99731.28;5006990;28;20056;-89
2023/03/29 07:49:10;;;;;;;21.65;9.98;;;;;;;8.36;100.00;99712.50;5014585;28;20053;-89
2023/03/29 07:51:37;;;;;;;21.02;10.25;;;;;;;8.61;100.00;99748.78;5009427;28;20599;-90
2023/03/29 07:54:05;;;;;;;25.40;13.57;;;;;;;8.36;100.00;99721.16;5012990;28;20507;-90
2023/03/29 07:56:31;;;;;;;27.67;14.95;;;;;;;8.29;100.00;99727.56;5004917;28;20408;-89
2023/03/29 07:58:58;;;;;;;20.17;10.38;;;;;;;8.49;100.00;99720.66;5005666;28;20054;-89
2023/03/29 08:01:25;;;;;;;21.38;11.00;;;;;;;8.57;100.00;99747.25;5006753;28;20042;-90
2023/03/29 08:03:52;;;;;;;16.42;8.57;;;;;;;8.69;100.00;99745.81;5006623;28;20117;-89
2023/03/29 08:06:18;;;;;;;18.42;9.32;;;;;;;8.73;100.00;99763.06;5013853;28;20395;-89
2023/03/29 08:08:45;;;;;;;18.05;10.05;;;;;;;8.59;100.00;99768.03;5012724;28;20112;-89
2023/03/29 08:11:12;;;;;;;18.60;9.40;;;;;;;8.50;100.00;99725.81;4994800;28;20050;-90
2023/03/29 08:13:39;;;;;;;19.08;10.07;;;;;;;8.43;100.00;99713.09;5028717;28;20058;-89
2023/03/29 08:16:07;;;;;;;22.35;10.60;;;;;;;8.75;100.00;99753.38;5012000;28;20056;-89
2023/03/29 08:18:34;;;;;;;24.42;10.43;;;;;;;8.36;100.00;99702.91;5001937;28;20053;-89
2023/03/29 08:21:01;;;;;;;23.10;12.48;;;;;;;8.73;100.00;99747.41;5011414;28;20045;-89
2023/03/29 08:23:28;;;;;;;20.77;9.77;;;;;;;8.52;100.00;99715.31;5003530;28;20051;-88
2023/03/29 08:25:55;;;;;;;19.23;9.45;;;;;;;8.63;100.00;99713.03;4997004;28;20062;-89
2023/03/29 08:28:22;;;;;;;19.45;9.18;;;;;;;8.50;100.00;99694.50;5008556;28;20046;-89
2023/03/29 08:30:49;;;;;;;24.13;12.63;;;;;;;8.51;100.00;99703.16;5005278;28;20049;-89
2023/03/29 08:33:16;;;;;;;16.02;7.93;;;;;;;8.58;100.00;99698.50;5011603;28;20073;-90
2023/03/29 08:35:42;;;;;;;20.48;9.68;;;;;;;8.59;100.00;99708.88;5002702;28;20076;-90
2023/03/29 08:38:10;;;;;;;22.98;10.25;;;;;;;8.58;100.00;99701.13;5013448;28;20045;-88
2023/03/29 08:40:36;;;;;;;22.70;9.73;;;;;;;8.57;100.00;99689.84;5021473;28;20050;-88
2023/03/29 08:43:22;;;;;;;16.50;8.98;;;;;;;8.88;100.00;99724.94;5006510;28;20047;-88
2023/03/29 08:46:08;;;;;;;14.75;8.15;;;;;;;8.99;100.00;99734.88;5005981;28;20480;-88
2023/03/29 08:48:42;;;;;;;18.25;8.85;;;;;;;8.64;100.00;99683.44;5001936;28;20538;-88
2023/03/29 08:51:30;;;;;;;18.35;13.30;;;;;;;9.15;100.00;99730.63;5006912;28;20050;-85
2023/03/29 08:54:38;;;;;;;19.27;9.65;;;;;;;9.06;100.00;99718.84;5008134;28;20050;-85
2023/03/29 08:57:36;;;;;;;19.67;8.43;;;;;;;8.73;100.00;99675.16;4998093;28;20552;-85
2023/03/29 09:00:05;;;;;;;15.00;6.53;;;;;;;9.04;100.00;99701.56;5007376;28;20095;-85
2023/03/29 09:02:34;;;;;;;18.42;7.40;;;;;;;9.11;100.00;99700.38;5003633;28;20476;-84
2023/03/29 09:05:26;;;;;;;14.13;7.32;;;;;;;9.08;100.00;99708.34;5010264;28;20050;-85
2023/03/29 09:07:53;;;;;;;17.98;9.00;;;;;;;9.05;100.00;99696.28;5011255;28;20475;-85
2023/03/29 09:10:30;;;;;;;17.58;8.75;;;;;;;8.85;100.00;99685.94;5011928;28;20042;-85
2023/03/29 09:13:25;;;;;;;11.20;5.80;;;;;;;9.07;100.00;99709.28;5006698;28;20049;-85
2023/03/29 09:16:29;;;;;;;12.68;5.05;;;;;;;9.17;100.00;99707.91;5027206;28;20541;-85
2023/03/29 09:19:18;;;;;;;11.27;5.30;;;;;;;9.30;100.00;99703.78;5012202;28;20173;-85
2023/03/29 09:22:07;;;;;;;13.63;5.88;;;;;;;9.29;100.00;99696.00;5007628;28;20053;-84
2023/03/29 09:24:37;;;;;;;15.15;6.20;;;;;;;9.36;100.00;99702.63;5004301;28;20046;-85
2023/03/29 09:27:26;;;;;;;11.75;5.88;;;;;;;9.55;100.00;99686.88;5010963;28;20054;-85
2023/03/29 09:30:11;;;;;;;20.70;8.05;;;;;;;9.57;100.00;99695.50;5009404;28;20057;-85
2023/03/29 09:32:43;;;;;;;13.93;5.88;;;;;;;9.64;100.00;99688.19;5009570;28;20053;-85
2023/03/29 09:35:20;;;;;;;20.95;8.20;;;;;;;9.42;100.00;99676.22;5011432;28;20506;-85
2023/03/29 09:37:50;;;;;;;18.52;7.45;;;;;;;9.40;100.00;99682.41;5012688;28;20447;-85
2023/03/29 09:40:23;;;;;;;18.33;8.10;;;;;;;9.36;100.00;99652.16;5010849;28;20050;-85
2023/03/29 09:42:51;;;;;;;;;;;;;;;9.55;100.00;99684.28;5008820;28;20046;-85
2023/03/29 09:45:18;;;;;;;14.57;7.28;;;;;;;9.49;100.00;99643.63;5007667;28;19921;-85
2023/03/29 09:47:50;;;;;;;16.15;7.95;;;;;;;9.59;100.00;99677.97;5008178;28;20064;-85
2023/03/29 09:50:28;;;;;;;16.13;7.17;;;;;;;9.59;100.00;99671.91;5006821;28;20514;-85
2023/03/29 09:52:58;;;;;;;21.02;7.68;;;;;;;9.32;100.00;99644.47;5020376;28;20129;-85
2023/03/29 09:55:28;;;;;;;18.40;7.03;;;;;;;9.26;100.00;99636.06;5009683;28;20046;-85
2023/03/29 09:57:59;;;;;;;22.60;7.75;;;;;;;9.28;100.00;99658.59;4997677;28;20058;-85
2023/03/29 10:00:26;;;;;;;14.45;6.70;;;;;;;9.47;100.00;99665.50;5007112;28;20066;-86
2023/03/29 10:02:56;;;;;;;20.08;7.10;;;;;;;9.30;100.00;99627.19;5012432;28;20088;-85
2023/03/29 10:05:25;;;;;;;16.42;6.78;;;;;;;9.23;100.00;99651.91;5026762;28;20048;-85
2023/03/29 10:07:56;;;;;;;18.10;7.07;;;;;;;9.46;100.00;99650.78;5016222;28;20400;-85
2023/03/29 10:10:31;;;;;;;18.65;7.60;;;;;;;9.35;100.00;99646.09;5007890;28;20073;-85
2023/03/29 10:13:11;;;;;;;18.17;6.93;;;;;;;9.30;100.00;99642.84;5001275;28;20050;-85
2023/03/29 10:15:37;;;;;;;12.40;5.45;;;;;;;9.15;100.00;99586.16;5011392;28;20389;-85
2023/03/29 10:18:11;;;;;;;20.73;7.20;;;;;;;9.38;100.00;99637.25;5025903;28;20052;-85
2023/03/29 10:20:39;;;;;;;13.15;6.22;;;;;;;9.28;100.00;99629.03;5012230;28;20157;-85
2023/03/29 10:23:07;;;;;;;20.73;9.32;;;;;;;9.27;100.00;99625.56;5015869;28;20046;-86
2023/03/29 10:25:41;;;;;;;18.88;8.10;;;;;;;9.06;100.00;99624.00;5001600;28;20476;-85
2023/03/29 10:28:20;;;;;;;18.13;7.05;;;;;;;9.40;100.00;99635.38;5030717;28;20049;-85
2023/03/29 10:30:54;;;;;;;17.83;8.40;;;;;;;9.08;100.00;99609.97;5010030;28;20073;-85
2023/03/29 10:33:23;;;;;;;18.88;7.80;;;;;;;9.44;100.00;99629.94;5008013;28;20104;-85
2023/03/29 10:35:50;;;;;;;21.20;8.32;;;;;;;9.38;100.00;99621.56;5007688;28;20460;-86
2023/03/29 10:38:19;;;;;;;21.17;7.15;;;;;;;9.57;100.00;99632.78;4994776;28;20056;-85
2023/03/29 10:40:54;;;;;;;18.40;7.70;;;;;;;9.63;100.00;99634.22;5000505;28;20046;-86
2023/03/29 10:43:25;;;;;;;19.95;10.32;;;;;;;9.24;100.00;99633.56;5006661;28;20046;-86
2023/03/29 10:46:05;;;;;;;22.58;10.30;;;;;;;9.10;100.00;99602.03;5000043;28;20057;-85
2023/03/29 10:48:34;;;;;;;24.98;11.25;;;;;;;9.26;100.00;99621.28;5013356;28;20060;-85
2023/03/29 10:51:04;;;;;;;20.67;8.88;;;;;;;9.39;100.00;99626.72;5000663;28;20324;-85
2023/03/29 10:53:33;;;;;;;25.73;12.77;;;;;;;9.27;100.00;99625.56;4999259;28;20057;-85
2023/03/29 10:56:07;;;;;;;25.98;13.40;;;;;;;9.40;100.00;99625.81;4994562;28;20050;-85
2023/03/29 10:59:03;;;;;;;19.70;9.88;;;;;;;9.61;100.00;99620.38;4994498;28;20046;-86
2023/03/29 11:01:53;;;;;;;27.52;11.13;;;;;;;9.15;100.00;99586.16;4999760;28;20072;-85
2023/03/29 11:04:38;;;;;;;22.63;11.57;;;;;;;9.27;100.00;99620.34;4995484;28;20504;-86
2023/03/29 11:07:21;;;;;;;30.70;12.40;;;;;;;9.21;100.00;99623.25;4993540;28;20047;-85
2023/03/29 11:10:09;;;;;;;27.70;11.95;;;;;;;9.39;100.00;99612.81;5009199;28;20054;-86
2023/03/29 11:12:45;;;;;;;21.15;10.35;;;;;;;9.67;100.00;99605.25;5006376;28;20046;-85
2023/03/29 11:15:26;;;;;;;21.10;9.10;;;;;;;9.80;100.00;99568.00;4995200;28;20050;-85
2023/03/29 11:18:12;;;;;;;23.55;11.50;;;;;;;9.87;100.00;99598.97;5003242;28;20104;-86
2023/03/29 11:20:59;;;;;;;23.30;9.75;;;;;;;9.46;100.00;99588.91;5005116;28;20108;-86
2023/03/29 11:24:04;;;;;;;23.80;8.63;;;;;;;9.60;100.00;99590.81;4981047;28;20141;-85
2023/03/29 11:26:41;;;;;;;27.55;11.45;;;;;;;9.29;100.00;99558.41;5007790;28;20093;-85
2023/03/29 11:29:17;;;;;;;18.00;8.77;;;;;;;9.62;100.00;99567.22;5018065;28;20048;-86
2023/03/29 11:31:59;;;;;;;23.65;9.40;;;;;;;9.84;100.00;99569.53;5008707;28;20056;-86
2023/03/29 11:34:39;;;;;;;27.55;10.63;;;;;;;9.55;100.00;99573.69;5004093;28;20054;-85
2023/03/29 11:37:20;;;;;;;24.05;10.75;;;;;;;9.66;100.00;99553.88;4997244;28;20444;-85
2023/03/29 11:40:09;;;;;;;22.05;9.80;;;;;;;9.79;100.00;99561.06;5012707;28;20058;-85
2023/03/29 11:42:42;;;;;;;24.52;11.13;;;;;;;9.68;100.00;99533.78;4996052;28;20050;-85
2023/03/29 11:45:16;;;;;;;24.58;11.27;;;;;;;9.60;100.00;99512.41;5014044;28;20385;-85